sensor_id;sensor_type;location;lat;lon;timestamp;pressure;altitude;pressure_sealevel;temperature;humidity
50093;BME280;35974;47.752;10.290;2023-10-13T00:00:27;94115.94;;;14.45;100.00
50093;BME280;35974;47.752;10.290;2023-10-13T00:02:57;94122.53;;;14.36;100.00
50093;BME280;35974;47.752;10.290;2023-10-13T00:05:29;94122.09;;;14.39;100.00
50093;BME280;35974;47.752;10.290;2023-10-13T00:08:01;94130.00;;;14.20;100.00
50093;BME280;35974;47.752;10.290;2023-10-13T00:10:28;94120.94;;;13.98;100.00
50093;BME280;35974;47.752;10.290;2023-10-13T00:12:55;94137.00;;;14.08;100.00
50093;BME280;35974;47.752;10.290;2023-10-13T00:15:32;94129.13;;;14.08;100.00
50093;BME280;35974;47.752;10.290;2023-10-13T00:18:05;94112.00;;;13.99;100.00
50093;BME280;35974;47.752;10.290;2023-10-13T00:20:41;94117.56;;;14.09;100.00
50093;BME280;35974;47.752;10.290;2023-10-13T00:23:14;94108.06;;;13.89;100.00
50093;BME280;35974;47.752;10.290;2023-10-13T00:25:41;94103.03;;;13.88;100.00
50093;BME280;35974;47.752;10.290;2023-10-13T00:28:16;94113.34;;;13.89;100.00
50093;BME280;35974;47.752;10.290;2023-10-13T00:30:54;94094.03;;;13.77;100.00
50093;BME280;35974;47.752;10.290;2023-10-13T00:33:27;94096.69;;;13.52;100.00
50093;BME280;35974;47.752;10.290;2023-10-13T00:35:54;94093.41;;;13.57;100.00
50093;BME280;35974;47.752;10.290;2023-10-13T00:38:24;94077.44;;;13.33;100.00
50093;BME280;35974;47.752;10.290;2023-10-13T00:40:50;94097.19;;;13.42;100.00
50093;BME280;35974;47.752;10.290;2023-10-13T00:43:22;94089.13;;;13.37;100.00
50093;BME280;35974;47.752;10.290;2023-10-13T00:45:56;94091.69;;;13.18;100.00
50093;BME280;35974;47.752;10.290;2023-10-13T00:48:25;94114.06;;;12.96;100.00
50093;BME280;35974;47.752;10.290;2023-10-13T00:50:57;94096.53;;;12.58;100.00
50093;BME280;35974;47.752;10.290;2023-10-13T00:53:25;94117.53;;;12.58;100.00
50093;BME280;35974;47.752;10.290;2023-10-13T00:55:52;94103.50;;;12.32;100.00
50093;BME280;35974;47.752;10.290;2023-10-13T00:58:22;94123.28;;;12.28;100.00
50093;BME280;35974;47.752;10.290;2023-10-13T01:00:50;94116.47;;;12.27;100.00
50093;BME280;35974;47.752;10.290;2023-10-13T01:03:23;94098.34;;;12.05;100.00
50093;BME280;35974;47.752;10.290;2023-10-13T01:05:55;94111.91;;;12.02;100.00
50093;BME280;35974;47.752;10.290;2023-10-13T01:08:32;94093.16;;;11.85;100.00
50093;BME280;35974;47.752;10.290;2023-10-13T01:11:04;94111.69;;;11.90;100.00
50093;BME280;35974;47.752;10.290;2023-10-13T01:13:34;94110.09;;;11.83;100.00
50093;BME280;35974;47.752;10.290;2023-10-13T01:16:03;94106.09;;;11.73;100.00
50093;BME280;35974;47.752;10.290;2023-10-13T01:18:31;94103.69;;;11.65;100.00
50093;BME280;35974;47.752;10.290;2023-10-13T01:20:57;94110.94;;;11.50;100.00
50093;BME280;35974;47.752;10.290;2023-10-13T01:23:28;94086.78;;;11.41;100.00
50093;BME280;35974;47.752;10.290;2023-10-13T01:25:55;94084.38;;;11.40;100.00
50093;BME280;35974;47.752;10.290;2023-10-13T01:28:24;94093.63;;;11.35;100.00
50093;BME280;35974;47.752;10.290;2023-10-13T01:30:51;94100.50;;;11.30;100.00
50093;BME280;35974;47.752;10.290;2023-10-13T01:33:18;94086.38;;;11.17;100.00
50093;BME280;35974;47.752;10.290;2023-10-13T01:35:55;94114.59;;;11.22;100.00
50093;BME280;35974;47.752;10.290;2023-10-13T01:38:23;94098.88;;;11.02;100.00
50093;BME280;35974;47.752;10.290;2023-10-13T01:40:54;94095.47;;;11.02;100.00
50093;BME280;35974;47.752;10.290;2023-10-13T01:43:23;94047.06;;;10.51;100.00
50093;BME280;35974;47.752;10.290;2023-10-13T01:45:50;94098.44;;;10.72;100.00
50093;BME280;35974;47.752;10.290;2023-10-13T01:48:16;94104.91;;;10.76;100.00
50093;BME280;35974;47.752;10.290;2023-10-13T01:50:45;94107.53;;;10.89;100.00
50093;BME280;35974;47.752;10.290;2023-10-13T01:53:19;94090.44;;;11.00;100.00
50093;BME280;35974;47.752;10.290;2023-10-13T01:55:45;94091.63;;;10.84;100.00
50093;BME280;35974;47.752;10.290;2023-10-13T01:58:14;94105.72;;;10.96;100.00
50093;BME280;35974;47.752;10.290;2023-10-13T02:00:49;94091.38;;;10.66;100.00
50093;BME280;35974;47.752;10.290;2023-10-13T02:03:16;94077.50;;;10.85;100.00
50093;BME280;35974;47.752;10.290;2023-10-13T02:05:47;94097.63;;;10.65;100.00
50093;BME280;35974;47.752;10.290;2023-10-13T02:08:19;94069.84;;;10.63;100.00
50093;BME280;35974;47.752;10.290;2023-10-13T02:10:54;94093.97;;;10.52;100.00
50093;BME280;35974;47.752;10.290;2023-10-13T02:13:22;94098.00;;;10.48;100.00
50093;BME280;35974;47.752;10.290;2023-10-13T02:15:54;94096.09;;;10.29;100.00
50093;BME280;35974;47.752;10.290;2023-10-13T02:18:24;94085.50;;;10.50;100.00
50093;BME280;35974;47.752;10.290;2023-10-13T02:20:54;94090.31;;;10.40;100.00
50093;BME280;35974;47.752;10.290;2023-10-13T02:23:22;94100.78;;;10.40;100.00
50093;BME280;35974;47.752;10.290;2023-10-13T02:25:48;94089.00;;;10.09;100.00
50093;BME280;35974;47.752;10.290;2023-10-13T02:28:18;94074.84;;;9.97;100.00
50093;BME280;35974;47.752;10.290;2023-10-13T02:30:48;94086.75;;;10.06;100.00
50093;BME280;35974;47.752;10.290;2023-10-13T02:33:17;94084.88;;;9.86;100.00
50093;BME280;35974;47.752;10.290;2023-10-13T02:35:48;94086.84;;;9.84;100.00
50093;BME280;35974;47.752;10.290;2023-10-13T02:38:22;94092.47;;;9.81;100.00
50093;BME280;35974;47.752;10.290;2023-10-13T02:41:02;94096.09;;;9.80;100.00
50093;BME280;35974;47.752;10.290;2023-10-13T02:43:36;94096.44;;;9.70;100.00
50093;BME280;35974;47.752;10.290;2023-10-13T02:46:04;94091.56;;;9.61;100.00
50093;BME280;35974;47.752;10.290;2023-10-13T02:48:30;94112.16;;;9.77;100.00
50093;BME280;35974;47.752;10.290;2023-10-13T02:51:07;94103.66;;;9.68;100.00
50093;BME280;35974;47.752;10.290;2023-10-13T02:53:47;94106.09;;;9.70;100.00
50093;BME280;35974;47.752;10.290;2023-10-13T02:56:16;94084.72;;;9.60;100.00
50093;BME280;35974;47.752;10.290;2023-10-13T02:58:51;94085.47;;;9.53;100.00
50093;BME280;35974;47.752;10.290;2023-10-13T03:01:23;94091.47;;;9.47;100.00
50093;BME280;35974;47.752;10.290;2023-10-13T03:03:55;94083.00;;;9.45;100.00
50093;BME280;35974;47.752;10.290;2023-10-13T03:06:25;94087.16;;;9.33;100.00
50093;BME280;35974;47.752;10.290;2023-10-13T03:09:07;94100.22;;;9.33;100.00
50093;BME280;35974;47.752;10.290;2023-10-13T03:11:51;94078.00;;;9.15;100.00
50093;BME280;35974;47.752;10.290;2023-10-13T03:14:19;94103.81;;;9.32;100.00
50093;BME280;35974;47.752;10.290;2023-10-13T03:16:55;94099.72;;;9.23;100.00
50093;BME280;35974;47.752;10.290;2023-10-13T03:19:22;94078.00;;;9.15;100.00
50093;BME280;35974;47.752;10.290;2023-10-13T03:21:49;94091.66;;;9.18;100.00
50093;BME280;35974;47.752;10.290;2023-10-13T03:24:22;94085.59;;;9.10;100.00
50093;BME280;35974;47.752;10.290;2023-10-13T03:27:03;94099.72;;;9.23;100.00
50093;BME280;35974;47.752;10.290;2023-10-13T03:29:36;94104.16;;;9.22;100.00
50093;BME280;35974;47.752;10.290;2023-10-13T03:32:04;94102.09;;;9.18;100.00
50093;BME280;35974;47.752;10.290;2023-10-13T03:34:38;94080.13;;;9.05;100.00
50093;BME280;35974;47.752;10.290;2023-10-13T03:37:17;94091.94;;;9.01;100.00
50093;BME280;35974;47.752;10.290;2023-10-13T03:39:45;94099.16;;;8.99;100.00
50093;BME280;35974;47.752;10.290;2023-10-13T03:42:12;94094.72;;;9.00;100.00
50093;BME280;35974;47.752;10.290;2023-10-13T03:45:05;94084.25;;;8.93;100.00
50093;BME280;35974;47.752;10.290;2023-10-13T03:47:36;94080.38;;;9.10;100.00
50093;BME280;35974;47.752;10.290;2023-10-13T03:50:05;94085.53;;;9.04;100.00
50093;BME280;35974;47.752;10.290;2023-10-13T03:52:56;94087.31;;;9.03;100.00
50093;BME280;35974;47.752;10.290;2023-10-13T03:55:26;94092.16;;;9.06;100.00
50093;BME280;35974;47.752;10.290;2023-10-13T03:57:56;94075.81;;;8.91;100.00
50093;BME280;35974;47.752;10.290;2023-10-13T04:00:26;94074.19;;;8.90;100.00
50093;BME280;35974;47.752;10.290;2023-10-13T04:02:54;94068.97;;;8.90;100.00
50093;BME280;35974;47.752;10.290;2023-10-13T04:05:32;94068.47;;;8.79;100.00
50093;BME280;35974;47.752;10.290;2023-10-13T04:08:05;94083.72;;;9.04;100.00
50093;BME280;35974;47.752;10.290;2023-10-13T04:10:56;94067.59;;;8.94;100.00
50093;BME280;35974;47.752;10.290;2023-10-13T04:13:43;94073.81;;;8.93;100.00
50093;BME280;35974;47.752;10.290;2023-10-13T04:16:27;94068.00;;;8.69;100.00
50093;BME280;35974;47.752;10.290;2023-10-13T04:18:54;94063.53;;;8.63;100.00
50093;BME280;35974;47.752;10.290;2023-10-13T04:21:30;94073.22;;;8.69;100.00
50093;BME280;35974;47.752;10.290;2023-10-13T04:24:12;94042.00;;;8.39;100.00
50093;BME280;35974;47.752;10.290;2023-10-13T04:26:44;94056.94;;;8.46;100.00
50093;BME280;35974;47.752;10.290;2023-10-13T04:32:12;94071.78;;;8.45;100.00
50093;BME280;35974;47.752;10.290;2023-10-13T04:34:46;94057.50;;;8.26;100.00
50093;BME280;35974;47.752;10.290;2023-10-13T04:37:12;94054.28;;;8.24;100.00
50093;BME280;35974;47.752;10.290;2023-10-13T04:39:56;94058.75;;;8.30;100.00
50093;BME280;35974;47.752;10.290;2023-10-13T04:42:38;94034.91;;;8.12;100.00
50093;BME280;35974;47.752;10.290;2023-10-13T04:45:17;94041.38;;;8.16;100.00
50093;BME280;35974;47.752;10.290;2023-10-13T04:48:05;94059.13;;;8.27;100.00
50093;BME280;35974;47.752;10.290;2023-10-13T04:50:46;94039.00;;;8.21;100.00
50093;BME280;35974;47.752;10.290;2023-10-13T04:53:14;94044.22;;;8.21;100.00
50093;BME280;35974;47.752;10.290;2023-10-13T04:55:57;94045.81;;;8.22;100.00
50093;BME280;35974;47.752;10.290;2023-10-13T04:58:30;94050.16;;;8.15;100.00
50093;BME280;35974;47.752;10.290;2023-10-13T05:01:03;94021.47;;;7.93;100.00
50093;BME280;35974;47.752;10.290;2023-10-13T05:03:49;94047.69;;;8.06;100.00
50093;BME280;35974;47.752;10.290;2023-10-13T05:06:29;93951.16;;;7.42;100.00
50093;BME280;35974;47.752;10.290;2023-10-13T05:09:12;94045.09;;;7.92;100.00
50093;BME280;35974;47.752;10.290;2023-10-13T05:11:58;94046.63;;;7.86;100.00
50093;BME280;35974;47.752;10.290;2023-10-13T05:14:44;94038.91;;;7.78;100.00
50093;BME280;35974;47.752;10.290;2023-10-13T05:17:49;94026.00;;;7.69;100.00
50093;BME280;35974;47.752;10.290;2023-10-13T05:20:34;94040.19;;;7.82;100.00
50093;BME280;35974;47.752;10.290;2023-10-13T05:23:19;94032.13;;;7.77;100.00
50093;BME280;35974;47.752;10.290;2023-10-13T05:26:05;94032.47;;;7.74;100.00
50093;BME280;35974;47.752;10.290;2023-10-13T05:28:50;94051.34;;;7.76;100.00
50093;BME280;35974;47.752;10.290;2023-10-13T05:31:53;94028.59;;;7.69;100.00
50093;BME280;35974;47.752;10.290;2023-10-13T05:34:38;94027.63;;;7.70;100.00
50093;BME280;35974;47.752;10.290;2023-10-13T05:37:24;94046.47;;;7.73;100.00
50093;BME280;35974;47.752;10.290;2023-10-13T05:40:09;94037.13;;;7.63;100.00
50093;BME280;35974;47.752;10.290;2023-10-13T05:42:54;94050.06;;;7.72;100.00
50093;BME280;35974;47.752;10.290;2023-10-13T05:45:39;94044.94;;;7.63;100.00
50093;BME280;35974;47.752;10.290;2023-10-13T05:48:30;94048.31;;;7.57;100.00
50093;BME280;35974;47.752;10.290;2023-10-13T05:51:15;94052.75;;;7.63;100.00
50093;BME280;35974;47.752;10.290;2023-10-13T05:54:00;94031.06;;;7.56;100.00
50093;BME280;35974;47.752;10.290;2023-10-13T05:56:41;94064.00;;;7.79;100.00
50093;BME280;35974;47.752;10.290;2023-10-13T05:59:29;94056.69;;;7.89;100.00
50093;BME280;35974;47.752;10.290;2023-10-13T06:02:15;94055.91;;;7.88;100.00
50093;BME280;35974;47.752;10.290;2023-10-13T06:05:02;94036.84;;;7.88;100.00
50093;BME280;35974;47.752;10.290;2023-10-13T06:07:47;94060.81;;;7.98;100.00
50093;BME280;35974;47.752;10.290;2023-10-13T06:10:33;94023.53;;;7.83;100.00
50093;BME280;35974;47.752;10.290;2023-10-13T06:13:18;94010.53;;;7.83;100.00
50093;BME280;35974;47.752;10.290;2023-10-13T06:16:07;94049.06;;;8.24;100.00
50093;BME280;35974;47.752;10.290;2023-10-13T06:18:53;94043.50;;;8.27;100.00
50093;BME280;35974;47.752;10.290;2023-10-13T06:21:39;94037.78;;;8.38;100.00
50093;BME280;35974;47.752;10.290;2023-10-13T06:24:25;94046.38;;;8.54;100.00
50093;BME280;35974;47.752;10.290;2023-10-13T06:27:10;94040.59;;;8.58;100.00
50093;BME280;35974;47.752;10.290;2023-10-13T06:29:55;94041.13;;;8.75;100.00
50093;BME280;35974;47.752;10.290;2023-10-13T06:32:23;94050.09;;;8.88;100.00
50093;BME280;35974;47.752;10.290;2023-10-13T06:34:53;94010.19;;;8.72;100.00
50093;BME280;35974;47.752;10.290;2023-10-13T06:37:33;94030.41;;;8.92;100.00
50093;BME280;35974;47.752;10.290;2023-10-13T06:40:03;94046.06;;;9.13;100.00
50093;BME280;35974;47.752;10.290;2023-10-13T06:42:33;94042.06;;;9.18;100.00
50093;BME280;35974;47.752;10.290;2023-10-13T06:45:09;94043.94;;;9.30;100.00
50093;BME280;35974;47.752;10.290;2023-10-13T06:47:35;94038.75;;;9.37;100.00
50093;BME280;35974;47.752;10.290;2023-10-13T06:50:09;94035.56;;;9.42;100.00
50093;BME280;35974;47.752;10.290;2023-10-13T06:52:42;94024.78;;;9.51;100.00
50093;BME280;35974;47.752;10.290;2023-10-13T06:55:09;94044.59;;;9.74;100.00
50093;BME280;35974;47.752;10.290;2023-10-13T06:57:50;94045.03;;;9.84;100.00
50093;BME280;35974;47.752;10.290;2023-10-13T07:00:18;94022.53;;;9.83;100.00
50093;BME280;35974;47.752;10.290;2023-10-13T07:02:56;94052.41;;;10.16;100.00
50093;BME280;35974;47.752;10.290;2023-10-13T07:05:40;94040.13;;;10.16;100.00
50093;BME280;35974;47.752;10.290;2023-10-13T07:08:08;94055.31;;;10.41;100.00
50093;BME280;35974;47.752;10.290;2023-10-13T07:10:35;94055.75;;;10.51;100.00
50093;BME280;35974;47.752;10.290;2023-10-13T07:13:14;94035.22;;;10.61;100.00
50093;BME280;35974;47.752;10.290;2023-10-13T07:15:40;94037.63;;;10.96;100.00
50093;BME280;35974;47.752;10.290;2023-10-13T07:18:15;94045.28;;;11.05;100.00
50093;BME280;35974;47.752;10.290;2023-10-13T07:20:44;94029.56;;;11.05;100.00
50093;BME280;35974;47.752;10.290;2023-10-13T07:23:12;94064.38;;;11.45;100.00
50093;BME280;35974;47.752;10.290;2023-10-13T07:25:52;94047.09;;;11.38;100.00
50093;BME280;35974;47.752;10.290;2023-10-13T07:28:21;94061.34;;;11.55;100.00
50093;BME280;35974;47.752;10.290;2023-10-13T07:30:48;94040.78;;;11.65;100.00
50093;BME280;35974;47.752;10.290;2023-10-13T07:33:21;94033.88;;;11.78;100.00
50093;BME280;35974;47.752;10.290;2023-10-13T07:35:48;94045.16;;;11.92;100.00
50093;BME280;35974;47.752;10.290;2023-10-13T07:38:25;94061.63;;;12.12;100.00
50093;BME280;35974;47.752;10.290;2023-10-13T07:40:56;94052.69;;;12.20;100.00
50093;BME280;35974;47.752;10.290;2023-10-13T07:43:35;94064.50;;;12.42;100.00
50093;BME280;35974;47.752;10.290;2023-10-13T07:46:06;94025.22;;;12.29;100.00
50093;BME280;35974;47.752;10.290;2023-10-13T07:48:39;94051.56;;;12.79;100.00
50093;BME280;35974;47.752;10.290;2023-10-13T07:51:12;94048.75;;;12.74;100.00
50093;BME280;35974;47.752;10.290;2023-10-13T07:53:45;94038.47;;;12.98;100.00
50093;BME280;35974;47.752;10.290;2023-10-13T07:56:15;94042.47;;;13.07;100.00
50093;BME280;35974;47.752;10.290;2023-10-13T07:58:45;94025.84;;;13.13;100.00
50093;BME280;35974;47.752;10.290;2023-10-13T08:01:30;94020.03;;;13.30;100.00
50093;BME280;35974;47.752;10.290;2023-10-13T08:03:57;94050.91;;;13.60;100.00
50093;BME280;35974;47.752;10.290;2023-10-13T08:06:32;94047.19;;;13.67;100.00
50093;BME280;35974;47.752;10.290;2023-10-13T08:09:02;94040.19;;;13.80;100.00
50093;BME280;35974;47.752;10.290;2023-10-13T08:11:36;94036.75;;;13.98;100.00
50093;BME280;35974;47.752;10.290;2023-10-13T08:14:05;94048.13;;;14.10;100.00
50093;BME280;35974;47.752;10.290;2023-10-13T08:16:58;94033.22;;;14.22;100.00
50093;BME280;35974;47.752;10.290;2023-10-13T08:19:28;94033.03;;;14.36;100.00
50093;BME280;35974;47.752;10.290;2023-10-13T08:22:07;94038.25;;;14.54;100.00
50093;BME280;35974;47.752;10.290;2023-10-13T08:24:47;94037.88;;;14.69;100.00
50093;BME280;35974;47.752;10.290;2023-10-13T08:27:18;94039.50;;;14.82;100.00
50093;BME280;35974;47.752;10.290;2023-10-13T08:30:03;94026.69;;;14.86;100.00
50093;BME280;35974;47.752;10.290;2023-10-13T08:32:49;94031.28;;;15.02;100.00
50093;BME280;35974;47.752;10.290;2023-10-13T08:35:25;94025.91;;;15.09;100.00
50093;BME280;35974;47.752;10.290;2023-10-13T08:38:04;94017.31;;;15.25;100.00
50093;BME280;35974;47.752;10.290;2023-10-13T08:40:58;94017.22;;;15.44;100.00
50093;BME280;35974;47.752;10.290;2023-10-13T08:43:43;94015.59;;;15.54;100.00
50093;BME280;35974;47.752;10.290;2023-10-13T08:46:17;94010.78;;;15.63;100.00
50093;BME280;35974;47.752;10.290;2023-10-13T08:48:58;94024.56;;;15.89;100.00
50093;BME280;35974;47.752;10.290;2023-10-13T08:51:34;94004.09;;;15.96;100.00
50093;BME280;35974;47.752;10.290;2023-10-13T08:54:14;94019.84;;;16.20;100.00
50093;BME280;35974;47.752;10.290;2023-10-13T08:57:02;94022.47;;;16.32;100.00
50093;BME280;35974;47.752;10.290;2023-10-13T08:59:54;93999.59;;;16.37;100.00
50093;BME280;35974;47.752;10.290;2023-10-13T09:02:22;94016.94;;;16.62;100.00
50093;BME280;35974;47.752;10.290;2023-10-13T09:05:11;93992.28;;;16.73;100.00
50093;BME280;35974;47.752;10.290;2023-10-13T09:07:56;94000.66;;;16.99;100.00
50093;BME280;35974;47.752;10.290;2023-10-13T09:10:34;93990.91;;;17.16;100.00
50093;BME280;35974;47.752;10.290;2023-10-13T09:13:10;94006.41;;;17.30;100.00
50093;BME280;35974;47.752;10.290;2023-10-13T09:15:45;93989.25;;;17.49;100.00
50093;BME280;35974;47.752;10.290;2023-10-13T09:18:32;93991.63;;;17.68;100.00
50093;BME280;35974;47.752;10.290;2023-10-13T09:21:09;93989.66;;;17.80;100.00
50093;BME280;35974;47.752;10.290;2023-10-13T09:23:54;93999.09;;;18.15;100.00
50093;BME280;35974;47.752;10.290;2023-10-13T09:26:40;93979.59;;;18.21;100.00
50093;BME280;35974;47.752;10.290;2023-10-13T09:29:18;93989.88;;;18.45;100.00
50093;BME280;35974;47.752;10.290;2023-10-13T09:31:59;93976.78;;;18.60;100.00
50093;BME280;35974;47.752;10.290;2023-10-13T09:34:26;93986.78;;;18.80;100.00
50093;BME280;35974;47.752;10.290;2023-10-13T09:37:00;93984.25;;;18.96;100.00
50093;BME280;35974;47.752;10.290;2023-10-13T09:39:32;93967.22;;;19.19;100.00
50093;BME280;35974;47.752;10.290;2023-10-13T09:42:18;93970.19;;;19.28;100.00
50093;BME280;35974;47.752;10.290;2023-10-13T09:44:46;93963.19;;;19.59;100.00
50093;BME280;35974;47.752;10.290;2023-10-13T09:47:22;93966.03;;;19.90;100.00
50093;BME280;35974;47.752;10.290;2023-10-13T09:50:04;93972.00;;;20.23;100.00
50093;BME280;35974;47.752;10.290;2023-10-13T09:52:45;93968.34;;;20.44;100.00
50093;BME280;35974;47.752;10.290;2023-10-13T09:55:28;93960.38;;;20.44;100.00
50093;BME280;35974;47.752;10.290;2023-10-13T09:58:06;93946.56;;;20.63;100.00
50093;BME280;35974;47.752;10.290;2023-10-13T10:00:48;93944.47;;;20.75;100.00
50093;BME280;35974;47.752;10.290;2023-10-13T10:03:24;93946.06;;;20.97;100.00
50093;BME280;35974;47.752;10.290;2023-10-13T10:06:06;93949.00;;;21.16;100.00
50093;BME280;35974;47.752;10.290;2023-10-13T10:08:43;93954.56;;;21.40;100.00
50093;BME280;35974;47.752;10.290;2023-10-13T10:17:02;93944.22;;;22.09;99.65
50093;BME280;35974;47.752;10.290;2023-10-13T10:22:24;93938.13;;;22.53;91.69
50093;BME280;35974;47.752;10.290;2023-10-13T10:25:00;93940.16;;;22.72;82.08
50093;BME280;35974;47.752;10.290;2023-10-13T10:27:30;93936.88;;;22.85;81.89
50093;BME280;35974;47.752;10.290;2023-10-13T10:29:58;93920.91;;;22.80;80.89
50093;BME280;35974;47.752;10.290;2023-10-13T10:32:37;93932.38;;;23.15;76.67
50093;BME280;35974;47.752;10.290;2023-10-13T10:35:08;93927.41;;;23.32;75.42
50093;BME280;35974;47.752;10.290;2023-10-13T10:37:37;93918.00;;;23.64;78.31
50093;BME280;35974;47.752;10.290;2023-10-13T10:40:09;93914.13;;;23.75;78.29
50093;BME280;35974;47.752;10.290;2023-10-13T10:42:50;93902.78;;;23.89;63.84
50093;BME280;35974;47.752;10.290;2023-10-13T10:45:17;93904.25;;;24.00;56.32
50093;BME280;35974;47.752;10.290;2023-10-13T10:47:48;93903.03;;;24.11;51.19
50093;BME280;35974;47.752;10.290;2023-10-13T10:50:25;93895.13;;;24.01;48.32
50093;BME280;35974;47.752;10.290;2023-10-13T10:53:04;93897.13;;;24.15;48.86
50093;BME280;35974;47.752;10.290;2023-10-13T10:55:38;93887.84;;;24.07;48.29
50093;BME280;35974;47.752;10.290;2023-10-13T10:58:04;93887.91;;;24.21;52.08
50093;BME280;35974;47.752;10.290;2023-10-13T11:01:06;93881.13;;;24.09;49.28
50093;BME280;35974;47.752;10.290;2023-10-13T11:03:59;93879.16;;;24.53;41.81
50093;BME280;35974;47.752;10.290;2023-10-13T11:06:26;93880.84;;;24.68;45.57
50093;BME280;35974;47.752;10.290;2023-10-13T11:09:07;93864.00;;;24.67;46.35
50093;BME280;35974;47.752;10.290;2023-10-13T11:11:47;93837.03;;;24.64;40.60
50093;BME280;35974;47.752;10.290;2023-10-13T11:14:25;93866.00;;;24.76;40.06
50093;BME280;35974;47.752;10.290;2023-10-13T11:16:54;93858.25;;;24.74;42.48
50093;BME280;35974;47.752;10.290;2023-10-13T11:19:22;93844.38;;;24.72;41.15
50093;BME280;35974;47.752;10.290;2023-10-13T11:24:41;93785.16;;;24.27;43.46
50093;BME280;35974;47.752;10.290;2023-10-13T11:27:15;93840.38;;;24.56;42.61
50093;BME280;35974;47.752;10.290;2023-10-13T11:30:05;93840.63;;;24.54;41.06
50093;BME280;35974;47.752;10.290;2023-10-13T11:32:38;93822.88;;;24.44;42.70
50093;BME280;35974;47.752;10.290;2023-10-13T11:35:11;93828.78;;;24.79;40.52
50093;BME280;35974;47.752;10.290;2023-10-13T11:37:47;93832.56;;;25.06;42.07
50093;BME280;35974;47.752;10.290;2023-10-13T11:40:23;93831.56;;;25.02;42.65
50093;BME280;35974;47.752;10.290;2023-10-13T11:43:25;93810.94;;;25.16;42.04
50093;BME280;35974;47.752;10.290;2023-10-13T11:45:52;93819.31;;;25.56;41.81
50093;BME280;35974;47.752;10.290;2023-10-13T11:48:22;93810.75;;;25.13;41.76
50093;BME280;35974;47.752;10.290;2023-10-13T11:51:01;93806.44;;;25.31;41.46
50093;BME280;35974;47.752;10.290;2023-10-13T11:53:36;93813.56;;;25.35;41.36
50093;BME280;35974;47.752;10.290;2023-10-13T11:56:04;93802.25;;;25.52;43.38
50093;BME280;35974;47.752;10.290;2023-10-13T11:58:36;93798.78;;;25.66;45.98
50093;BME280;35974;47.752;10.290;2023-10-13T12:01:03;93802.84;;;25.77;41.33
50093;BME280;35974;47.752;10.290;2023-10-13T12:03:43;93796.50;;;25.31;39.83
50093;BME280;35974;47.752;10.290;2023-10-13T12:06:29;93804.44;;;25.50;44.19
50093;BME280;35974;47.752;10.290;2023-10-13T12:09:03;93795.22;;;25.56;45.35
50093;BME280;35974;47.752;10.290;2023-10-13T12:11:46;93781.00;;;25.70;42.42
50093;BME280;35974;47.752;10.290;2023-10-13T12:14:14;93771.75;;;25.76;42.52
50093;BME280;35974;47.752;10.290;2023-10-13T12:17:04;93773.06;;;25.79;40.54
50093;BME280;35974;47.752;10.290;2023-10-13T12:19:31;93769.09;;;25.76;43.44
50093;BME280;35974;47.752;10.290;2023-10-13T12:21:58;93771.22;;;25.88;43.25
50093;BME280;35974;47.752;10.290;2023-10-13T12:24:30;93756.03;;;25.61;43.02
50093;BME280;35974;47.752;10.290;2023-10-13T12:27:07;93771.69;;;25.53;44.06
50093;BME280;35974;47.752;10.290;2023-10-13T12:29:50;93754.16;;;25.47;44.95
50093;BME280;35974;47.752;10.290;2023-10-13T12:32:19;93757.22;;;25.54;43.03
50093;BME280;35974;47.752;10.290;2023-10-13T12:34:50;93751.69;;;25.37;43.85
50093;BME280;35974;47.752;10.290;2023-10-13T12:37:28;93736.75;;;25.58;45.54
50093;BME280;35974;47.752;10.290;2023-10-13T12:40:15;93754.00;;;25.80;45.36
50093;BME280;35974;47.752;10.290;2023-10-13T12:43:00;93740.91;;;25.65;44.26
50093;BME280;35974;47.752;10.290;2023-10-13T12:45:46;93740.97;;;25.37;45.53
50093;BME280;35974;47.752;10.290;2023-10-13T12:48:33;93749.97;;;25.55;44.00
50093;BME280;35974;47.752;10.290;2023-10-13T12:51:18;93747.47;;;25.58;44.86
50093;BME280;35974;47.752;10.290;2023-10-13T12:54:02;93740.69;;;25.75;46.16
50093;BME280;35974;47.752;10.290;2023-10-13T12:56:32;93725.97;;;25.86;43.20
50093;BME280;35974;47.752;10.290;2023-10-13T12:58:58;93724.59;;;25.75;46.76
50093;BME280;35974;47.752;10.290;2023-10-13T13:01:25;93727.19;;;25.80;45.61
50093;BME280;35974;47.752;10.290;2023-10-13T13:03:59;93720.88;;;25.62;44.87
50093;BME280;35974;47.752;10.290;2023-10-13T13:06:30;93712.16;;;25.56;45.52
50093;BME280;35974;47.752;10.290;2023-10-13T13:08:58;93711.41;;;25.14;43.30
50093;BME280;35974;47.752;10.290;2023-10-13T13:11:26;93714.09;;;25.14;42.49
50093;BME280;35974;47.752;10.290;2023-10-13T13:13:55;93719.72;;;25.54;47.50
50093;BME280;35974;47.752;10.290;2023-10-13T13:16:21;93719.38;;;25.70;46.56
50093;BME280;35974;47.752;10.290;2023-10-13T13:18:51;93715.56;;;25.48;45.14
50093;BME280;35974;47.752;10.290;2023-10-13T13:21:18;93710.56;;;25.55;47.14
50093;BME280;35974;47.752;10.290;2023-10-13T13:23:50;93707.63;;;25.43;44.01
50093;BME280;35974;47.752;10.290;2023-10-13T13:26:16;93708.16;;;25.68;43.71
50093;BME280;35974;47.752;10.290;2023-10-13T13:28:45;93701.19;;;25.81;44.68
50093;BME280;35974;47.752;10.290;2023-10-13T13:31:11;93695.81;;;25.81;44.46
50093;BME280;35974;47.752;10.290;2023-10-13T13:33:41;93705.28;;;26.01;46.86
50093;BME280;35974;47.752;10.290;2023-10-13T13:36:12;93712.38;;;26.19;45.46
50093;BME280;35974;47.752;10.290;2023-10-13T13:38:43;93697.34;;;25.36;41.43
50093;BME280;35974;47.752;10.290;2023-10-13T13:41:16;93701.22;;;25.67;44.50